Bradshaw Army Airfield Camp Pohakuloa US
ICAO: PHSF
IATA:
Category: Medium
Scheduled Services:

Elevation: 6190 ft
TransAlt. 18000 ft.

Airport Communications:
HONOLULU CNTR:126
ATIS:124.7
CTAF:126.3
RANGE:38.3
PMSV METRO:122.75
HONOLULU RDO:25.54
TWR:41.5

PHSF Zoom In..

Runways:

(A) RW 09 length 3695 ft width 90 ft
---- / hdg 91

(B) RW 27 length 3695 ft width 90 ft
---- / hdg 271

Location; PHSF
Day. 25 / Time. 11.56 Zulu
* Altimeter: 30.33
* Temperature: 07° c. 44.6°f.
* Wind from: 120° Speed 03 kn.
Dewpoint: 06° c.
Visibility: 10 Statute Miles.
Clouds: Few 1000 ft.

PHSF 251156Z AUTO 12003KT 10SM FEW100 07/06 A3033 RMK AO2 SLP170 WND DATA ESTMD 70001 T00710057 10135 20071 57012 PWINO $


Wind From 120°
Speed 03 kn.

  YouTube Music Video
 
jpsmedia.com for Web Design  worldairports.se 2018   terms of use